createdAt,value
2019-02-27T00:00:30.187Z,95.60
2019-02-27T00:02:58.883Z,95.30
2019-02-27T00:05:27.623Z,96.00
2019-02-27T00:07:56.247Z,95.80
2019-02-27T00:10:24.840Z,95.20
2019-02-27T00:12:53.535Z,95.70
2019-02-27T00:15:22.177Z,96.00
2019-02-27T00:17:51.370Z,95.50
2019-02-27T00:20:20.620Z,96.00
2019-02-27T00:22:50.621Z,94.90
2019-02-27T00:25:19.484Z,95.60
2019-02-27T00:27:49.274Z,94.80
2019-02-27T00:30:18.410Z,95.80
2019-02-27T00:32:50.935Z,96.00
2019-02-27T00:35:17.352Z,96.30
2019-02-27T00:37:45.895Z,95.90
2019-02-27T00:40:14.585Z,95.20
2019-02-27T00:42:43.107Z,95.70
2019-02-27T00:45:12.294Z,96.40
2019-02-27T00:47:40.859Z,96.40
2019-02-27T00:50:10.075Z,95.70
2019-02-27T00:52:38.646Z,96.40
2019-02-27T00:55:08.731Z,96.30
2019-02-27T00:57:37.380Z,96.60
2019-02-27T01:00:17.220Z,97.20
2019-02-27T01:02:45.858Z,97.00
2019-02-27T01:05:14.547Z,97.30
2019-02-27T01:07:43.188Z,96.80
2019-02-27T01:10:12.875Z,96.80
2019-02-27T01:12:41.810Z,96.40
2019-02-27T01:15:13.499Z,96.60
2019-02-27T01:17:42.552Z,96.60
2019-02-27T01:20:15.273Z,97.00
2019-02-27T01:22:43.978Z,96.80
2019-02-27T01:25:13.170Z,97.20
2019-02-27T01:27:41.734Z,96.80
2019-02-27T01:30:13.228Z,96.60
2019-02-27T01:32:41.869Z,96.90
2019-02-27T01:35:11.456Z,97.10
2019-02-27T01:37:40.037Z,97.10
2019-02-27T01:40:11.436Z,97.30
2019-02-27T01:42:40.021Z,97.20
2019-02-27T01:45:11.546Z,97.10
2019-02-27T01:47:40.187Z,97.20
2019-02-27T01:50:26.236Z,97.00
2019-02-27T01:52:55.109Z,96.70
2019-02-27T01:55:23.803Z,97.00
2019-02-27T01:57:52.470Z,97.00
2019-02-27T02:00:23.268Z,97.90
2019-02-27T02:02:51.397Z,97.10
2019-02-27T02:05:20.083Z,97.20
2019-02-27T02:07:49.022Z,97.30
2019-02-27T02:10:17.811Z,97.90
2019-02-27T02:12:52.064Z,98.80
2019-02-27T02:15:44.323Z,99.00
2019-02-27T02:18:27.924Z,99.40
2019-02-27T02:21:10.835Z,99.40
2019-02-27T02:24:11.527Z,99.20
2019-02-27T02:26:51.860Z,99.30
2019-02-27T02:29:46.140Z,99.80
2019-02-27T02:32:39.032Z,99.90
2019-02-27T02:35:31.542Z,99.50
2019-02-27T02:38:12.307Z,99.90
2019-02-27T02:40:53.988Z,99.90
2019-02-27T02:43:40.218Z,99.90
2019-02-27T02:46:13.933Z,99.90
2019-02-27T02:48:51.056Z,99.90
2019-02-27T02:51:34.499Z,99.90
2019-02-27T02:54:20.722Z,99.90
2019-02-27T02:57:00.540Z,99.90
2019-02-27T02:59:49.049Z,99.90
2019-02-27T03:02:35.716Z,99.90
2019-02-27T03:05:23.728Z,99.90
2019-02-27T03:08:19.888Z,99.90
2019-02-27T03:10:57.426Z,99.90
2019-02-27T03:14:02.230Z,99.90
2019-02-27T03:16:41.536Z,99.90
2019-02-27T03:19:15.861Z,99.90
2019-02-27T03:21:47.518Z,99.90
2019-02-27T03:24:34.158Z,99.90
2019-02-27T03:27:30.617Z,99.90
2019-02-27T03:30:19.230Z,99.90
2019-02-27T03:32:50.871Z,99.90
2019-02-27T03:35:45.196Z,99.90
2019-02-27T03:38:36.311Z,99.90
2019-02-27T03:41:22.963Z,99.90
2019-02-27T03:44:08.213Z,99.90
2019-02-27T03:46:45.517Z,99.90
2019-02-27T03:49:40.724Z,99.90
2019-02-27T03:52:37.377Z,99.90
2019-02-27T03:55:42.567Z,99.90
2019-02-27T03:58:17.039Z,99.90
2019-02-27T04:00:57.787Z,99.90
2019-02-27T04:03:54.235Z,99.90
2019-02-27T04:06:44.960Z,99.90
2019-02-27T04:09:18.894Z,99.90
2019-02-27T04:11:43.762Z,99.90
2019-02-27T04:14:27.439Z,99.90
2019-02-27T04:16:56.103Z,99.90
2019-02-27T04:19:24.707Z,99.90
2019-02-27T04:21:53.283Z,99.90
2019-02-27T04:24:22.587Z,99.90
2019-02-27T04:26:51.824Z,99.90
2019-02-27T04:29:20.374Z,99.90
2019-02-27T04:31:48.967Z,99.90
2019-02-27T04:34:17.693Z,99.90
2019-02-27T04:36:47.292Z,99.90
2019-02-27T04:39:16.324Z,99.90
2019-02-27T04:41:44.910Z,99.90
2019-02-27T04:44:13.529Z,99.90
2019-02-27T04:46:42.090Z,99.90
2019-02-27T04:49:10.643Z,99.90
2019-02-27T04:51:39.246Z,99.90
2019-02-27T04:54:07.832Z,99.90
2019-02-27T04:56:36.407Z,99.90
2019-02-27T04:59:04.971Z,99.90
2019-02-27T05:01:36.444Z,99.90
2019-02-27T05:04:03.769Z,99.90
2019-02-27T05:06:32.418Z,99.90
2019-02-27T05:09:00.986Z,99.90
2019-02-27T05:11:29.554Z,99.90
2019-02-27T05:13:58.138Z,99.90
2019-02-27T05:16:26.704Z,99.90
2019-02-27T05:18:55.302Z,99.90
2019-02-27T05:21:23.879Z,99.90
2019-02-27T05:23:52.454Z,99.90
2019-02-27T05:26:21.001Z,99.90
2019-02-27T05:28:49.576Z,99.90
2019-02-27T05:31:19.055Z,99.90
2019-02-27T05:33:47.836Z,99.90
2019-02-27T05:36:16.410Z,99.90
2019-02-27T05:38:44.978Z,99.90
2019-02-27T05:41:13.529Z,99.90
2019-02-27T05:43:42.104Z,99.90
2019-02-27T05:46:10.752Z,99.90
2019-02-27T05:48:39.332Z,99.90
2019-02-27T05:51:08.335Z,99.90
2019-02-27T05:53:38.148Z,99.90
2019-02-27T05:56:06.709Z,99.90
2019-02-27T05:58:35.299Z,99.90
2019-02-27T06:01:04.957Z,99.90
2019-02-27T06:03:34.152Z,99.90
2019-02-27T06:06:02.707Z,99.90
2019-02-27T06:08:35.166Z,99.90
2019-02-27T06:11:01.488Z,99.90
2019-02-27T06:13:30.072Z,99.90
2019-02-27T06:16:02.910Z,99.90
2019-02-27T06:18:28.925Z,99.90
2019-02-27T06:20:57.471Z,99.90
2019-02-27T06:23:26.150Z,99.90
2019-02-27T06:25:59.086Z,99.90
2019-02-27T06:28:24.943Z,99.90
2019-02-27T06:30:53.569Z,99.90
2019-02-27T06:33:22.151Z,99.90
2019-02-27T06:35:50.701Z,99.90
2019-02-27T06:38:19.311Z,99.90
2019-02-27T06:40:47.927Z,99.90
2019-02-27T06:43:16.506Z,99.90
2019-02-27T06:45:46.485Z,99.90
2019-02-27T06:48:15.237Z,99.90
2019-02-27T06:50:43.814Z,99.90
2019-02-27T06:53:15.611Z,98.40
2019-02-27T06:55:42.623Z,96.50
2019-02-27T06:58:14.607Z,95.30
2019-02-27T07:00:41.403Z,94.60
2019-02-27T07:03:09.995Z,93.40
2019-02-27T07:05:38.570Z,92.30
2019-02-27T07:08:07.110Z,91.30
2019-02-27T07:10:35.712Z,90.70
2019-02-27T07:13:04.335Z,90.30
2019-02-27T07:15:32.915Z,89.80
2019-02-27T07:18:03.401Z,88.30
2019-02-27T07:20:31.849Z,85.60
2019-02-27T07:23:00.404Z,84.00
2019-02-27T07:25:28.986Z,82.40
2019-02-27T07:27:57.538Z,79.20
2019-02-27T07:30:26.127Z,77.10
2019-02-27T07:32:54.685Z,75.80
2019-02-27T07:35:25.409Z,72.10
2019-02-27T07:37:53.460Z,68.40
2019-02-27T07:40:22.048Z,66.30
2019-02-27T07:42:50.602Z,65.90
2019-02-27T07:45:23.468Z,63.70
2019-02-27T07:47:52.078Z,63.50
2019-02-27T07:50:21.608Z,61.20
2019-02-27T07:52:51.921Z,59.30
2019-02-27T07:55:23.062Z,59.50
2019-02-27T07:57:50.842Z,60.30
2019-02-27T08:00:23.546Z,59.80
2019-02-27T08:02:52.126Z,58.70
2019-02-27T08:05:20.806Z,57.10
2019-02-27T08:07:49.962Z,55.00
2019-02-27T08:10:21.207Z,55.90
2019-02-27T08:12:49.831Z,53.50
2019-02-27T08:15:21.487Z,53.30
2019-02-27T08:17:50.135Z,52.50
2019-02-27T08:20:21.005Z,54.70
2019-02-27T08:22:49.770Z,54.40
2019-02-27T08:25:18.953Z,51.70
2019-02-27T08:27:47.579Z,53.10
2019-02-27T08:30:23.673Z,52.00
2019-02-27T08:32:52.254Z,50.50
2019-02-27T08:35:20.901Z,50.20
2019-02-27T08:37:49.479Z,48.70
2019-02-27T08:40:18.071Z,49.90
2019-02-27T08:42:46.647Z,48.20
2019-02-27T08:45:20.508Z,48.10
2019-02-27T08:47:49.485Z,50.70
2019-02-27T08:50:19.433Z,48.60
2019-02-27T08:52:51.494Z,47.90
2019-02-27T08:55:22.293Z,46.90
2019-02-27T08:57:50.081Z,47.50
2019-02-27T09:00:28.764Z,45.40
2019-02-27T09:03:02.295Z,45.60
2019-02-27T09:05:27.567Z,45.20
2019-02-27T09:07:56.178Z,42.70
2019-02-27T09:10:26.809Z,41.00
2019-02-27T09:13:04.935Z,41.20
2019-02-27T09:15:26.242Z,41.20
2019-02-27T09:17:54.808Z,42.10
2019-02-27T09:20:23.388Z,40.20
2019-02-27T09:22:51.940Z,40.10
2019-02-27T09:25:23.875Z,40.30
2019-02-27T09:27:50.729Z,41.00
2019-02-27T09:30:21.442Z,40.30
2019-02-27T09:32:50.059Z,40.90
2019-02-27T09:35:18.655Z,40.70
2019-02-27T09:37:48.461Z,40.10
2019-02-27T09:40:19.775Z,41.60
2019-02-27T09:42:50.146Z,44.20
2019-02-27T09:45:35.433Z,42.50
2019-02-27T09:48:04.732Z,40.30
2019-02-27T09:50:48.136Z,39.60
2019-02-27T09:53:15.492Z,40.10
2019-02-27T09:55:44.146Z,39.00
2019-02-27T09:58:12.871Z,39.10
2019-02-27T10:00:44.158Z,39.20
2019-02-27T10:03:12.856Z,38.10
2019-02-27T10:05:41.438Z,36.10
2019-02-27T10:08:11.040Z,36.20
2019-02-27T10:10:39.766Z,36.60
2019-02-27T10:13:08.386Z,35.00
2019-02-27T10:15:36.957Z,35.40
2019-02-27T10:18:05.693Z,33.80
2019-02-27T10:20:36.823Z,32.70
2019-02-27T10:23:04.700Z,31.40
2019-02-27T10:25:33.248Z,32.90
2019-02-27T10:28:04.494Z,33.00
2019-02-27T10:30:32.322Z,33.00
2019-02-27T10:33:00.968Z,34.00
2019-02-27T10:35:30.147Z,32.00
2019-02-27T10:37:59.014Z,32.70
2019-02-27T10:40:27.743Z,32.70
2019-02-27T10:42:56.311Z,33.90
2019-02-27T10:45:24.956Z,32.70
2019-02-27T10:47:53.536Z,30.90
2019-02-27T10:50:22.103Z,30.40
2019-02-27T10:52:50.684Z,30.00
2019-02-27T10:55:20.497Z,29.80
2019-02-27T10:57:49.219Z,30.00
2019-02-27T11:00:26.927Z,30.20
2019-02-27T11:02:55.495Z,30.40
2019-02-27T11:05:25.479Z,32.00
2019-02-27T11:07:54.055Z,33.00
2019-02-27T11:10:22.927Z,31.60
2019-02-27T11:12:51.564Z,31.90
2019-02-27T11:15:21.459Z,32.20
2019-02-27T11:17:50.091Z,31.50
2019-02-27T11:20:20.841Z,31.80
2019-02-27T11:22:49.004Z,31.40
2019-02-27T11:25:28.745Z,30.40
2019-02-27T11:27:57.436Z,30.40
2019-02-27T11:30:40.547Z,31.40
2019-02-27T11:33:09.219Z,30.30
2019-02-27T11:35:37.830Z,30.40
2019-02-27T11:38:06.627Z,32.00
2019-02-27T11:40:35.170Z,31.10
2019-02-27T11:43:06.346Z,32.50
2019-02-27T11:45:34.007Z,32.90
2019-02-27T11:48:02.602Z,32.30
2019-02-27T11:50:31.303Z,31.30
2019-02-27T11:53:02.762Z,30.80
2019-02-27T11:55:30.304Z,30.30
2019-02-27T11:57:58.900Z,29.50
2019-02-27T12:00:29.148Z,28.10
2019-02-27T12:02:58.271Z,28.10
2019-02-27T12:05:33.812Z,26.50
2019-02-27T12:07:59.136Z,26.30
2019-02-27T12:10:31.779Z,25.60
2019-02-27T12:13:01.393Z,26.00
2019-02-27T12:15:30.382Z,25.40
2019-02-27T12:18:00.570Z,26.00
2019-02-27T12:20:29.434Z,25.60
2019-02-27T12:22:58.086Z,27.10
2019-02-27T12:25:29.687Z,27.30
2019-02-27T12:27:57.299Z,28.20
2019-02-27T12:30:28.080Z,28.80
2019-02-27T12:32:57.091Z,27.70
2019-02-27T12:35:28.733Z,27.90
2019-02-27T12:37:57.418Z,29.30
2019-02-27T12:40:26.152Z,28.30
2019-02-27T12:42:54.946Z,29.40
2019-02-27T12:45:26.582Z,29.00
2019-02-27T12:47:55.316Z,29.10
2019-02-27T12:50:27.036Z,30.00
2019-02-27T12:52:56.258Z,30.20
2019-02-27T12:55:25.048Z,32.50
2019-02-27T12:57:53.668Z,33.00
2019-02-27T13:00:29.647Z,34.70
2019-02-27T13:02:59.228Z,35.10
2019-02-27T13:05:28.709Z,35.00
2019-02-27T13:07:57.496Z,35.10
2019-02-27T13:10:33.188Z,35.40
2019-02-27T13:12:58.163Z,35.30
2019-02-27T13:15:28.771Z,37.10
2019-02-27T13:17:58.022Z,39.00
2019-02-27T13:20:30.855Z,38.30
2019-02-27T13:23:03.900Z,39.30
2019-02-27T13:25:30.467Z,39.80
2019-02-27T13:27:59.232Z,40.90
2019-02-27T13:30:28.547Z,40.70
2019-02-27T13:33:00.621Z,41.00
2019-02-27T13:35:28.532Z,40.50
2019-02-27T13:37:57.425Z,40.70
2019-02-27T13:40:27.439Z,40.30
2019-02-27T13:42:56.139Z,40.40
2019-02-27T13:45:29.823Z,41.50
2019-02-27T13:47:59.085Z,41.60
2019-02-27T13:50:27.994Z,40.70
2019-02-27T13:52:56.550Z,41.10
2019-02-27T13:55:25.245Z,41.30
2019-02-27T13:57:58.931Z,41.50
2019-02-27T14:00:39.407Z,41.00
2019-02-27T14:03:12.395Z,41.80
2019-02-27T14:05:38.259Z,42.40
2019-02-27T14:08:06.890Z,41.70
2019-02-27T14:10:35.460Z,40.60
2019-02-27T14:13:08.810Z,40.90
2019-02-27T14:15:34.707Z,43.10
2019-02-27T14:18:03.270Z,42.30
2019-02-27T14:20:31.873Z,42.50
2019-02-27T14:23:00.454Z,43.20
2019-02-27T14:25:33.476Z,42.70
2019-02-27T14:28:02.385Z,43.30
2019-02-27T14:30:42.799Z,43.10
2019-02-27T14:33:11.498Z,43.30
2019-02-27T14:35:40.043Z,43.30
2019-02-27T14:38:08.685Z,42.90
2019-02-27T14:40:40.966Z,43.10
2019-02-27T14:43:07.679Z,42.50
2019-02-27T14:45:39.564Z,43.20
2019-02-27T14:48:06.677Z,42.50
2019-02-27T14:50:35.509Z,42.20
2019-02-27T14:53:04.134Z,43.00
2019-02-27T14:55:35.953Z,42.40
2019-02-27T14:58:03.078Z,42.30
2019-02-27T15:00:33.403Z,42.80
2019-02-27T15:03:01.951Z,43.10
2019-02-27T15:05:31.007Z,42.50
2019-02-27T15:07:59.854Z,42.50
2019-02-27T15:10:28.398Z,44.00
2019-02-27T15:12:56.962Z,42.80
2019-02-27T15:15:27.380Z,41.40
2019-02-27T15:17:56.383Z,41.70
2019-02-27T15:20:27.080Z,42.10
2019-02-27T15:22:55.790Z,42.00
2019-02-27T15:25:24.555Z,42.40
2019-02-27T15:27:58.304Z,42.60
2019-02-27T15:30:30.908Z,42.30
2019-02-27T15:33:03.820Z,41.20
2019-02-27T15:35:29.807Z,41.20
2019-02-27T15:37:58.605Z,41.30
2019-02-27T15:40:30.074Z,41.00
2019-02-27T15:42:59.181Z,41.10
2019-02-27T15:45:28.795Z,41.90
2019-02-27T15:47:57.529Z,42.20
2019-02-27T15:50:31.383Z,42.70
2019-02-27T15:53:00.036Z,42.80
2019-02-27T15:55:32.973Z,42.80
2019-02-27T15:57:59.000Z,43.00
2019-02-27T16:00:28.593Z,43.10
2019-02-27T16:02:57.346Z,42.60
2019-02-27T16:05:30.079Z,42.80
2019-02-27T16:07:56.291Z,43.30
2019-02-27T16:10:26.198Z,43.20
2019-02-27T16:13:00.040Z,44.30
2019-02-27T16:15:25.296Z,43.50
2019-02-27T16:17:53.939Z,44.00
2019-02-27T16:20:41.820Z,43.70
2019-02-27T16:23:10.577Z,44.30
2019-02-27T16:25:39.130Z,44.60
2019-02-27T16:28:11.359Z,45.10
2019-02-27T16:30:37.979Z,45.40
2019-02-27T16:33:07.127Z,45.80
2019-02-27T16:35:41.387Z,46.00
2019-02-27T16:38:06.195Z,46.60
2019-02-27T16:40:34.817Z,46.50
2019-02-27T16:43:03.409Z,46.90
2019-02-27T16:45:39.359Z,47.70
2019-02-27T16:48:08.020Z,48.80
2019-02-27T16:50:36.757Z,50.80
2019-02-27T16:53:05.286Z,51.30
2019-02-27T16:55:37.002Z,52.10
2019-02-27T16:58:04.089Z,53.40
2019-02-27T17:00:37.591Z,54.70
2019-02-27T17:03:06.270Z,55.20
2019-02-27T17:05:35.652Z,56.50
2019-02-27T17:08:04.373Z,57.30
2019-02-27T17:10:39.943Z,58.20
2019-02-27T17:13:08.596Z,59.20
2019-02-27T17:15:37.152Z,60.90
2019-02-27T17:18:05.877Z,62.10
2019-02-27T17:20:34.551Z,63.30
2019-02-27T17:23:07.422Z,64.10
2019-02-27T17:25:33.518Z,64.90
2019-02-27T17:28:02.238Z,67.20
2019-02-27T17:30:37.739Z,66.90
2019-02-27T17:33:05.246Z,68.10
2019-02-27T17:35:34.122Z,69.40
2019-02-27T17:38:03.195Z,70.10
2019-02-27T17:40:36.281Z,71.10
2019-02-27T17:43:02.148Z,71.70
2019-02-27T17:45:30.725Z,72.90
2019-02-27T17:47:59.283Z,73.70
2019-02-27T17:50:31.368Z,72.80
2019-02-27T17:52:58.287Z,75.00
2019-02-27T17:55:26.907Z,75.70
2019-02-27T17:57:58.391Z,76.80
2019-02-27T18:00:28.591Z,77.50
2019-02-27T18:02:57.434Z,78.80
2019-02-27T18:05:26.191Z,80.10
2019-02-27T18:07:54.938Z,80.50
2019-02-27T18:10:23.533Z,81.40
2019-02-27T18:12:52.212Z,82.50
2019-02-27T18:15:22.020Z,82.70
2019-02-27T18:17:50.822Z,83.60
2019-02-27T18:20:24.149Z,85.20
2019-02-27T18:22:50.456Z,86.10
2019-02-27T18:25:19.771Z,87.30
2019-02-27T18:27:48.402Z,89.00
2019-02-27T18:30:21.524Z,89.80
2019-02-27T18:32:50.325Z,90.00
2019-02-27T18:35:19.635Z,90.40
2019-02-27T18:37:53.213Z,90.80
2019-02-27T18:40:20.093Z,91.00
2019-02-27T18:42:48.720Z,91.10
2019-02-27T18:45:19.341Z,91.20
2019-02-27T18:47:47.885Z,91.50
2019-02-27T18:50:17.016Z,91.30
2019-02-27T18:52:45.634Z,91.90
2019-02-27T18:55:16.134Z,92.20
2019-02-27T18:57:47.235Z,92.30
2019-02-27T19:00:23.076Z,92.40
2019-02-27T19:03:09.197Z,92.70
2019-02-27T19:05:41.743Z,92.90
2019-02-27T19:08:08.402Z,92.90
2019-02-27T19:10:41.331Z,93.50
2019-02-27T19:13:07.214Z,93.70
2019-02-27T19:15:35.859Z,94.00
2019-02-27T19:18:06.623Z,95.00
2019-02-27T19:20:37.927Z,95.40
2019-02-27T19:23:06.551Z,95.80
2019-02-27T19:25:35.548Z,96.00
2019-02-27T19:28:04.446Z,96.30
2019-02-27T19:30:34.700Z,96.70
2019-02-27T19:33:03.509Z,97.00
2019-02-27T19:35:32.215Z,96.20
2019-02-27T19:38:00.895Z,96.60
2019-02-27T19:40:30.559Z,96.60
2019-02-27T19:43:04.210Z,95.80
2019-02-27T19:45:35.875Z,96.60
2019-02-27T19:48:03.152Z,96.40
2019-02-27T19:50:31.803Z,96.60
2019-02-27T19:53:05.209Z,97.40
2019-02-27T19:55:30.919Z,97.30
2019-02-27T19:57:59.556Z,97.60
2019-02-27T20:00:33.788Z,98.10
2019-02-27T20:03:01.586Z,98.50
2019-02-27T20:05:30.502Z,98.40
2019-02-27T20:07:59.131Z,98.80
2019-02-27T20:10:30.943Z,99.00
2019-02-27T20:12:58.067Z,99.10
2019-02-27T20:15:27.581Z,98.00
2019-02-27T20:17:56.324Z,98.40
2019-02-27T20:20:26.010Z,98.40
2019-02-27T20:22:55.517Z,98.90
2019-02-27T20:25:29.118Z,97.90
2019-02-27T20:27:58.732Z,98.70
2019-02-27T20:30:27.626Z,98.10
2019-02-27T20:32:56.305Z,99.40
2019-02-27T20:35:25.076Z,99.90
2019-02-27T20:37:53.644Z,99.30
2019-02-27T20:40:22.431Z,99.30
2019-02-27T20:42:54.941Z,99.20
2019-02-27T20:45:22.551Z,99.90
2019-02-27T20:47:57.647Z,99.90
2019-02-27T20:50:34.762Z,99.90
2019-02-27T20:52:58.678Z,99.90
2019-02-27T20:55:27.231Z,99.90
2019-02-27T20:57:55.924Z,99.90
2019-02-27T21:00:25.019Z,99.90
2019-02-27T21:02:54.161Z,99.90
2019-02-27T21:05:23.695Z,99.90
2019-02-27T21:07:52.277Z,99.90
2019-02-27T21:10:23.858Z,99.90
2019-02-27T21:12:54.250Z,99.90
2019-02-27T21:15:24.852Z,99.90
2019-02-27T21:17:57.748Z,99.90
2019-02-27T21:20:23.699Z,99.90
2019-02-27T21:22:52.509Z,99.90
2019-02-27T21:25:21.098Z,99.90
2019-02-27T21:27:49.690Z,99.90
2019-02-27T21:30:45.366Z,99.90
2019-02-27T21:33:13.926Z,99.90
2019-02-27T21:35:44.608Z,99.90
2019-02-27T21:38:12.844Z,99.90
2019-02-27T21:40:41.463Z,99.90
2019-02-27T21:43:10.122Z,99.90
2019-02-27T21:45:38.744Z,99.90
2019-02-27T21:48:07.471Z,99.90
2019-02-27T21:50:39.645Z,99.90
2019-02-27T21:53:06.436Z,99.90
2019-02-27T21:55:34.990Z,99.90
2019-02-27T21:58:03.713Z,99.90
2019-02-27T22:00:32.348Z,99.90
2019-02-27T22:03:03.625Z,99.90
2019-02-27T22:05:31.342Z,99.90
2019-02-27T22:07:59.859Z,99.90
2019-02-27T22:10:28.618Z,99.90
2019-02-27T22:12:57.239Z,99.90
2019-02-27T22:15:27.570Z,99.90
2019-02-27T22:17:56.261Z,99.90
2019-02-27T22:20:26.760Z,99.90
2019-02-27T22:22:55.583Z,99.90
2019-02-27T22:25:24.253Z,99.90
2019-02-27T22:27:52.939Z,99.90
2019-02-27T22:30:22.469Z,99.90
2019-02-27T22:32:51.190Z,99.90
2019-02-27T22:35:19.837Z,99.90
2019-02-27T22:37:50.976Z,99.90
2019-02-27T22:40:23.416Z,99.90
2019-02-27T22:42:51.962Z,99.90
2019-02-27T22:45:20.993Z,99.90
2019-02-27T22:47:50.477Z,99.90
2019-02-27T22:50:20.116Z,99.90
2019-02-27T22:52:54.072Z,99.90
2019-02-27T22:55:19.250Z,99.90
2019-02-27T22:57:47.867Z,99.90
2019-02-27T23:00:56.106Z,99.90
2019-02-27T23:03:27.991Z,99.90
2019-02-27T23:05:56.724Z,99.90
2019-02-27T23:08:25.337Z,99.90
2019-02-27T23:10:53.924Z,99.90
2019-02-27T23:13:22.549Z,99.90
2019-02-27T23:15:51.765Z,99.90
2019-02-27T23:18:20.450Z,99.90
2019-02-27T23:20:49.059Z,99.90
2019-02-27T23:23:17.834Z,99.90
2019-02-27T23:25:47.380Z,99.90
2019-02-27T23:28:16.030Z,99.90
2019-02-27T23:30:47.032Z,99.90
2019-02-27T23:33:14.959Z,99.90
2019-02-27T23:35:43.648Z,99.90
2019-02-27T23:38:12.199Z,99.90
2019-02-27T23:40:40.771Z,99.90
2019-02-27T23:43:09.416Z,99.90
2019-02-27T23:45:38.002Z,99.90
2019-02-27T23:48:06.738Z,99.90
2019-02-27T23:50:35.253Z,99.90
2019-02-27T23:53:03.871Z,99.90
2019-02-27T23:55:32.452Z,99.90
2019-02-27T23:58:01.129Z,99.90
